Time;durP1;ratioP1;P1;durP2;ratioP2;P2;SDS_P1;SDS_P2;PMS_P1;PMS_P2;Temp;Humidity;BMP_temperature;BMP_pressure;BME280_temperature;BME280_humidity;BME280_pressure;Samples;Min_cycle;Max_cycle;Signal;HPM_P1;HPM_P2
2023/10/27 00:00:36;;;;;;;1999.90;999.90;;;10.30;99.90;;;;;;5084189;28;21007;-69
2023/10/27 00:03:01;;;;;;;1999.90;999.90;;;10.30;99.90;;;;;;5078231;28;20426;-69
2023/10/27 00:05:27;;;;;;;1999.90;999.90;;;10.40;99.90;;;;;;5092299;28;20435;-69
2023/10/27 00:07:52;;;;;;;1999.90;999.90;;;10.30;99.90;;;;;;5084655;28;20182;-69
2023/10/27 00:10:18;;;;;;;1999.90;999.90;;;10.30;99.90;;;;;;5094245;28;20322;-69
2023/10/27 00:12:44;;;;;;;1999.90;999.90;;;10.20;99.90;;;;;;5094788;28;20180;-68
2023/10/27 00:15:10;;;;;;;1999.90;999.90;;;10.20;99.90;;;;;;5095167;28;20700;-69
2023/10/27 00:17:35;;;;;;;1999.90;999.90;;;10.30;99.90;;;;;;5089125;28;20242;-69
2023/10/27 00:20:03;;;;;;;1999.90;999.90;;;10.40;99.90;;;;;;5078647;28;20188;-69
2023/10/27 00:22:28;;;;;;;1999.90;999.90;;;10.20;99.90;;;;;;5086153;28;20504;-69
2023/10/27 00:24:54;;;;;;;1999.90;999.90;;;10.20;99.90;;;;;;5086994;28;20488;-68
2023/10/27 00:27:20;;;;;;;1999.90;999.90;;;10.10;99.90;;;;;;5089307;28;20169;-69
2023/10/27 00:29:46;;;;;;;1999.90;999.90;;;10.20;99.90;;;;;;5095592;28;20633;-69
2023/10/27 00:32:11;;;;;;;1999.90;999.90;;;10.10;99.90;;;;;;5096302;28;20447;-69
2023/10/27 00:34:37;;;;;;;1999.90;999.90;;;10.30;99.90;;;;;;5088463;28;20428;-69
2023/10/27 00:37:03;;;;;;;1999.90;999.90;;;10.30;99.90;;;;;;5090616;28;20286;-69
2023/10/27 00:39:29;;;;;;;1999.90;999.90;;;10.30;99.90;;;;;;5084314;28;20193;-69
2023/10/27 00:41:55;;;;;;;1999.90;999.90;;;10.20;99.90;;;;;;5089026;28;20421;-69
2023/10/27 00:44:20;;;;;;;1999.90;999.90;;;10.30;99.90;;;;;;5099222;28;20648;-69
2023/10/27 00:46:46;;;;;;;1999.90;999.90;;;10.30;99.90;;;;;;5098946;28;20404;-69
2023/10/27 00:49:12;;;;;;;1999.90;999.90;;;10.30;99.90;;;;;;5094245;28;20214;-69
2023/10/27 00:51:39;;;;;;;1999.90;999.90;;;10.30;99.90;;;;;;5081339;28;20205;-68
2023/10/27 00:54:08;;;;;;;1999.90;999.90;;;10.30;99.90;;;;;;5089843;28;20459;-69
2023/10/27 00:56:35;;;;;;;1999.90;999.90;;;10.30;99.90;;;;;;5098633;28;20411;-69
2023/10/27 00:59:02;;;;;;;1999.90;999.90;;;10.40;99.90;;;;;;5098878;28;20436;-69
2023/10/27 01:01:27;;;;;;;1999.90;999.90;;;10.40;99.90;;;;;;5098186;28;20432;-69
2023/10/27 01:03:55;;;;;;;1999.90;999.90;;;10.40;99.90;;;;;;5098335;28;20419;-69
2023/10/27 01:06:22;;;;;;;1999.90;999.90;;;10.60;99.90;;;;;;5091500;28;20292;-69
2023/10/27 01:08:47;;;;;;;1999.90;999.90;;;10.40;99.90;;;;;;5084265;28;20411;-69
2023/10/27 01:11:14;;;;;;;1999.90;999.90;;;10.60;99.90;;;;;;5083098;28;20470;-68
2023/10/27 01:13:39;;;;;;;1999.90;999.90;;;10.60;99.90;;;;;;5091703;28;20196;-68
2023/10/27 01:16:05;;;;;;;1999.90;999.90;;;10.50;99.90;;;;;;5095089;28;20469;-69
2023/10/27 01:18:31;;;;;;;1999.90;999.90;;;10.60;99.90;;;;;;5094990;28;20171;-69
2023/10/27 01:20:56;;;;;;;1999.90;999.90;;;10.60;99.90;;;;;;5094773;28;20431;-68
2023/10/27 01:23:22;;;;;;;1999.90;999.90;;;10.70;99.90;;;;;;5056106;28;20186;-68
2023/10/27 01:25:47;;;;;;;1999.90;999.90;;;10.60;99.90;;;;;;5090161;28;20204;-68
2023/10/27 01:28:13;;;;;;;1999.90;999.90;;;10.70;99.90;;;;;;5083528;28;20253;-69
2023/10/27 01:30:38;;;;;;;1999.90;999.90;;;10.70;99.90;;;;;;5090877;28;20253;-68
2023/10/27 01:33:04;;;;;;;1999.90;999.90;;;10.60;99.90;;;;;;5094896;28;20160;-68
2023/10/27 01:35:29;;;;;;;1999.90;999.90;;;10.60;99.90;;;;;;5094849;28;20556;-68
2023/10/27 01:37:55;;;;;;;1999.90;999.90;;;10.60;99.90;;;;;;5081704;28;20250;-68
2023/10/27 01:40:21;;;;;;;1999.90;999.90;;;10.60;99.90;;;;;;5080780;28;20220;-68
2023/10/27 01:42:46;;;;;;;1999.90;999.90;;;10.60;99.90;;;;;;5085831;28;20593;-68
2023/10/27 01:45:13;;;;;;;1999.90;999.90;;;10.60;99.90;;;;;;5094772;28;20166;-68
2023/10/27 01:47:39;;;;;;;1999.90;999.90;;;10.60;99.90;;;;;;5094545;28;20173;-68
2023/10/27 01:50:06;;;;;;;1999.90;999.90;;;10.60;99.90;;;;;;5094158;28;20446;-68
2023/10/27 01:52:31;;;;;;;1999.90;999.90;;;10.60;99.90;;;;;;5078487;28;20418;-68
2023/10/27 01:54:57;;;;;;;1999.90;999.90;;;10.60;99.90;;;;;;5084638;28;20414;-68
2023/10/27 01:57:23;;;;;;;1999.90;999.90;;;10.70;99.90;;;;;;5094541;28;20178;-68
2023/10/27 01:59:49;;;;;;;1999.90;999.90;;;10.60;99.90;;;;;;5094377;28;20418;-68
2023/10/27 02:02:15;;;;;;;1999.90;999.90;;;10.40;99.90;;;;;;5094143;28;20823;-67
2023/10/27 02:04:41;;;;;;;1999.90;999.90;;;10.50;99.90;;;;;;5094301;28;20403;-68
2023/10/27 02:07:07;;;;;;;1999.90;999.90;;;10.60;99.90;;;;;;5094117;28;20411;-68
2023/10/27 02:09:32;;;;;;;1999.90;999.90;;;10.50;99.90;;;;;;5073912;28;20319;-69
2023/10/27 02:11:58;;;;;;;1999.90;999.90;;;10.60;99.90;;;;;;5081811;28;20217;-69
2023/10/27 02:14:27;;;;;;;1999.90;999.90;;;10.60;99.90;;;;;;5073803;28;20200;-69
2023/10/27 02:16:52;;;;;;;1999.90;999.90;;;10.60;99.90;;;;;;5073801;28;20166;-69
2023/10/27 02:19:18;;;;;;;1999.90;999.90;;;10.70;99.90;;;;;;5073660;28;20429;-68
2023/10/27 02:21:45;;;;;;;1999.90;999.90;;;10.70;99.90;;;;;;5073373;28;20216;-69
2023/10/27 02:24:12;;;;;;;1999.90;999.90;;;10.80;99.90;;;;;;5072615;28;20832;-68
2023/10/27 02:26:37;;;;;;;1999.90;999.90;;;10.70;99.90;;;;;;5085379;28;20443;-68
2023/10/27 02:29:03;;;;;;;1999.90;999.90;;;10.80;99.90;;;;;;5093402;28;20919;-68
2023/10/27 02:31:29;;;;;;;1999.90;999.90;;;10.80;99.90;;;;;;5084989;28;20204;-68
2023/10/27 02:33:54;;;;;;;1999.90;999.90;;;10.90;99.90;;;;;;5093683;28;20204;-68
2023/10/27 02:36:20;;;;;;;1999.90;999.90;;;10.90;99.90;;;;;;5093573;28;20195;-68
2023/10/27 02:38:45;;;;;;;1999.90;999.90;;;10.60;99.90;;;;;;5088647;28;20171;-68
2023/10/27 02:41:11;;;;;;;1999.90;999.90;;;10.90;99.90;;;;;;5084767;28;20233;-68
2023/10/27 02:43:40;;;;;;;1999.90;999.90;;;10.90;99.90;;;;;;5090921;28;20177;-67
2023/10/27 02:46:06;;;;;;;1999.90;999.90;;;11.00;99.90;;;;;;5085028;28;20919;-67
2023/10/27 02:48:31;;;;;;;1999.90;999.90;;;11.00;99.90;;;;;;5093283;28;20458;-68
2023/10/27 02:50:57;;;;;;;1999.90;999.90;;;11.00;99.90;;;;;;5092939;28;20300;-68
2023/10/27 02:53:23;;;;;;;1999.90;999.90;;;11.00;99.90;;;;;;5093186;28;20170;-67
2023/10/27 02:55:49;;;;;;;1999.90;999.90;;;11.00;99.90;;;;;;5088731;28;20427;-69
2023/10/27 02:58:15;;;;;;;1999.90;999.90;;;11.00;99.90;;;;;;5072850;28;20179;-67
2023/10/27 03:00:44;;;;;;;1999.90;999.90;;;11.00;99.90;;;;;;5080916;28;20487;-69
2023/10/27 03:03:10;;;;;;;1999.90;999.90;;;11.00;99.90;;;;;;5052804;28;20186;-67
2023/10/27 03:05:36;;;;;;;1999.90;999.90;;;11.10;99.90;;;;;;5052797;28;20417;-68
2023/10/27 03:08:02;;;;;;;1999.90;999.90;;;11.10;99.90;;;;;;5052701;28;20405;-68
2023/10/27 03:10:28;;;;;;;1999.90;999.90;;;11.00;99.90;;;;;;5069410;28;20621;-67
2023/10/27 03:12:54;;;;;;;1999.90;999.90;;;11.00;99.90;;;;;;5084563;28;20506;-67
2023/10/27 03:15:20;;;;;;;1999.90;999.90;;;10.90;99.90;;;;;;5092914;28;20483;-68
2023/10/27 03:17:45;;;;;;;1999.90;999.90;;;10.90;99.90;;;;;;5092773;28;20640;-68
2023/10/27 03:20:11;;;;;;;1999.90;999.90;;;10.90;99.90;;;;;;5092493;28;20230;-68
2023/10/27 03:22:37;;;;;;;1999.90;999.90;;;10.90;99.90;;;;;;5094275;28;20517;-68
2023/10/27 03:25:03;;;;;;;1999.90;999.90;;;10.90;99.90;;;;;;5090480;28;20524;-68
2023/10/27 03:27:32;;;;;;;1999.90;999.90;;;10.90;99.90;;;;;;5095403;28;20166;-68
2023/10/27 03:29:58;;;;;;;1999.90;999.90;;;10.90;99.90;;;;;;5101998;28;20446;-69
2023/10/27 03:32:23;;;;;;;1999.90;999.90;;;11.00;99.90;;;;;;5097460;28;21037;-68
2023/10/27 03:34:49;;;;;;;1999.90;999.90;;;10.90;99.90;;;;;;5105256;28;20456;-68
2023/10/27 03:37:15;;;;;;;1999.90;999.90;;;10.90;99.90;;;;;;5104329;28;20196;-69
2023/10/27 03:39:40;;;;;;;1999.90;999.90;;;10.90;99.90;;;;;;5095002;28;20701;-69
2023/10/27 03:42:07;;;;;;;1999.90;999.90;;;10.90;99.90;;;;;;5094887;28;20170;-68
2023/10/27 03:44:33;;;;;;;1999.90;999.90;;;11.00;99.90;;;;;;5101818;28;20181;-69
2023/10/27 03:46:59;;;;;;;1999.90;999.90;;;10.90;99.90;;;;;;5094537;28;20459;-70
2023/10/27 03:49:25;;;;;;;1999.90;999.90;;;10.90;99.90;;;;;;5104808;28;20424;-69
2023/10/27 03:51:51;;;;;;;1999.90;999.90;;;10.90;99.90;;;;;;5104540;28;20209;-69
2023/10/27 03:54:18;;;;;;;1999.90;999.90;;;10.90;99.90;;;;;;5105490;28;20405;-70
2023/10/27 03:56:43;;;;;;;1999.90;999.90;;;10.90;99.90;;;;;;5090913;28;20414;-70
2023/10/27 03:59:10;;;;;;;1999.90;999.90;;;10.90;99.90;;;;;;5104658;28;20428;-70
2023/10/27 04:01:37;;;;;;;1999.90;999.90;;;10.90;99.90;;;;;;5097238;28;20159;-69
2023/10/27 04:04:03;;;;;;;1999.90;999.90;;;10.90;99.90;;;;;;5105904;28;20410;-69
2023/10/27 04:06:29;;;;;;;1999.90;999.90;;;10.90;99.90;;;;;;5105363;28;20424;-68
2023/10/27 04:08:55;;;;;;;1999.90;999.90;;;11.10;99.90;;;;;;5105376;28;20468;-69
2023/10/27 04:11:20;;;;;;;1999.90;999.90;;;11.00;99.90;;;;;;5097003;28;20464;-69
2023/10/27 04:13:46;;;;;;;1999.90;999.90;;;11.00;99.90;;;;;;5101747;28;20167;-68
2023/10/27 04:16:12;;;;;;;1999.90;999.90;;;10.90;99.90;;;;;;5104153;28;20176;-69
2023/10/27 04:18:38;;;;;;;1999.90;999.90;;;10.90;99.90;;;;;;5103399;28;20223;-69
2023/10/27 04:21:04;;;;;;;1999.90;999.90;;;10.90;99.90;;;;;;5095011;28;20203;-69
2023/10/27 04:23:31;;;;;;;1999.90;999.90;;;10.90;99.90;;;;;;5103333;28;20408;-68
2023/10/27 04:25:56;;;;;;;1999.90;999.90;;;10.90;99.90;;;;;;5100054;28;20432;-69
2023/10/27 04:28:22;;;;;;;1999.90;999.90;;;11.00;99.90;;;;;;5092323;28;20430;-68
2023/10/27 04:30:48;;;;;;;1999.90;999.90;;;10.90;99.90;;;;;;5091842;28;20207;-69
2023/10/27 04:33:15;;;;;;;1999.90;999.90;;;10.90;99.90;;;;;;5105094;28;20614;-69
2023/10/27 04:35:42;;;;;;;1999.90;999.90;;;11.00;99.90;;;;;;5106033;28;20173;-69
2023/10/27 04:38:07;;;;;;;1999.90;999.90;;;11.00;99.90;;;;;;5105117;28;20411;-69
2023/10/27 04:40:34;;;;;;;1999.90;999.90;;;11.00;99.90;;;;;;5102327;28;20466;-69
2023/10/27 04:43:00;;;;;;;1999.90;999.90;;;11.00;99.90;;;;;;5087449;28;20586;-69
2023/10/27 04:45:26;;;;;;;1999.90;999.90;;;11.00;99.90;;;;;;5099360;28;20415;-70
2023/10/27 04:47:52;;;;;;;1999.90;999.90;;;10.90;99.90;;;;;;5101881;28;20482;-69
2023/10/27 04:50:18;;;;;;;1999.90;999.90;;;10.90;99.90;;;;;;5104812;28;20464;-69
2023/10/27 04:52:45;;;;;;;1999.90;999.90;;;11.00;99.90;;;;;;5105181;28;20407;-69
2023/10/27 04:55:11;;;;;;;1999.90;999.90;;;11.00;99.90;;;;;;5094148;28;20223;-69
2023/10/27 04:57:36;;;;;;;1999.90;999.90;;;11.00;99.90;;;;;;5070591;28;20853;-70
2023/10/27 05:00:08;;;;;;;1999.90;999.90;;;11.00;99.90;;;;;;5084097;28;20197;-69
2023/10/27 05:02:34;;;;;;;1999.90;999.90;;;10.90;99.90;;;;;;5086242;28;20422;-69
2023/10/27 05:04:59;;;;;;;1999.90;999.90;;;10.90;99.90;;;;;;5092055;28;20412;-69
2023/10/27 05:07:25;;;;;;;1999.90;999.90;;;10.90;99.90;;;;;;5092112;28;20668;-69
2023/10/27 05:09:51;;;;;;;1999.90;999.90;;;11.00;99.90;;;;;;5090649;28;20302;-69
2023/10/27 05:12:17;;;;;;;1999.90;999.90;;;11.00;99.90;;;;;;5081981;28;20198;-70
2023/10/27 05:14:43;;;;;;;1999.90;999.90;;;11.00;99.90;;;;;;5079899;28;21173;-69
2023/10/27 05:17:08;;;;;;;1999.90;999.90;;;11.00;99.90;;;;;;5090704;28;20419;-69
2023/10/27 05:19:34;;;;;;;1999.90;999.90;;;11.00;99.90;;;;;;5094866;28;20618;-69
2023/10/27 05:22:04;;;;;;;1999.90;999.90;;;11.00;99.90;;;;;;5095415;28;20218;-70
2023/10/27 05:24:30;;;;;;;1999.90;999.90;;;11.00;99.90;;;;;;5095492;28;20760;-69
2023/10/27 05:26:56;;;;;;;1999.90;999.90;;;11.00;99.90;;;;;;5095392;28;20781;-69
2023/10/27 05:29:21;;;;;;;1999.90;999.90;;;11.00;99.90;;;;;;5095201;28;20522;-69
2023/10/27 05:31:47;;;;;;;1999.90;999.90;;;11.00;99.90;;;;;;5095078;28;20597;-70
2023/10/27 05:34:12;;;;;;;1999.90;999.90;;;11.00;99.90;;;;;;5095473;28;20574;-69
2023/10/27 05:36:38;;;;;;;1999.90;999.90;;;11.00;99.90;;;;;;5095394;28;20163;-69
2023/10/27 05:39:04;;;;;;;1999.90;999.90;;;11.00;99.90;;;;;;5094199;28;20194;-69
2023/10/27 05:41:29;;;;;;;1999.90;999.90;;;11.10;99.90;;;;;;5086547;28;20170;-68
2023/10/27 05:43:55;;;;;;;1999.90;999.90;;;11.10;99.90;;;;;;5089065;28;20182;-69
2023/10/27 05:46:21;;;;;;;1999.90;999.90;;;11.20;99.90;;;;;;5086910;28;20566;-69
2023/10/27 05:48:46;;;;;;;1999.90;999.90;;;11.30;99.90;;;;;;5094990;28;20173;-69
2023/10/27 05:51:12;;;;;;;1999.90;999.90;;;11.20;99.90;;;;;;5094644;28;20950;-69
2023/10/27 05:53:38;;;;;;;1999.90;999.90;;;11.20;99.90;;;;;;5094933;28;20170;-69
2023/10/27 05:56:04;;;;;;;1999.90;999.90;;;11.20;99.90;;;;;;5095116;28;20177;-69
2023/10/27 05:58:32;;;;;;;1999.90;999.90;;;11.20;99.90;;;;;;5094652;28;20796;-69
2023/10/27 06:00:59;;;;;;;1999.90;999.90;;;11.20;99.90;;;;;;5094733;28;20433;-69
2023/10/27 06:03:25;;;;;;;1999.90;999.90;;;11.20;99.90;;;;;;5095114;28;20430;-69
2023/10/27 06:05:52;;;;;;;1999.90;999.90;;;11.20;99.90;;;;;;5094849;28;20504;-69
2023/10/27 06:08:21;;;;;;;1999.90;999.90;;;11.20;99.90;;;;;;5094771;28;20170;-68
2023/10/27 06:10:46;;;;;;;1999.90;999.90;;;11.20;99.90;;;;;;5094229;28;20978;-70
2023/10/27 06:13:13;;;;;;;1999.90;999.90;;;11.20;99.90;;;;;;5094570;28;20440;-68
2023/10/27 06:15:39;;;;;;;1999.90;999.90;;;11.20;99.90;;;;;;5094521;28;20173;-69
2023/10/27 06:18:04;;;;;;;1999.90;999.90;;;11.20;99.90;;;;;;5094350;28;20415;-69
2023/10/27 06:20:30;;;;;;;1999.90;999.90;;;11.30;99.90;;;;;;5094062;28;20923;-69
2023/10/27 06:22:56;;;;;;;1999.90;999.90;;;11.20;99.90;;;;;;5094259;28;20568;-70
2023/10/27 06:25:25;;;;;;;1999.90;999.90;;;11.30;99.90;;;;;;5094100;28;20170;-69
2023/10/27 06:27:52;;;;;;;1999.90;999.90;;;11.30;99.90;;;;;;5094123;28;20314;-69
2023/10/27 06:30:20;;;;;;;1999.90;999.90;;;11.30;99.90;;;;;;5094006;28;20440;-69
2023/10/27 06:32:48;;;;;;;1999.90;999.90;;;11.20;99.90;;;;;;5093849;28;20400;-69
2023/10/27 06:35:14;;;;;;;1999.90;999.90;;;11.20;99.90;;;;;;5094422;28;20636;-69
2023/10/27 06:37:40;;;;;;;1999.90;999.90;;;11.20;99.90;;;;;;5095893;28;20403;-69
2023/10/27 06:40:06;;;;;;;1999.90;999.90;;;11.10;99.90;;;;;;5095117;28;20526;-69
2023/10/27 06:42:32;;;;;;;1999.90;999.90;;;11.00;99.90;;;;;;5094125;28;20769;-69
2023/10/27 06:44:59;;;;;;;1999.90;999.90;;;10.70;99.90;;;;;;5093501;28;20869;-70
2023/10/27 06:47:25;;;;;;;1999.90;999.90;;;10.70;99.90;;;;;;5093358;28;20496;-70
2023/10/27 06:49:50;;;;;;;1999.90;999.90;;;10.70;99.90;;;;;;5093256;28;20521;-69
2023/10/27 06:52:16;;;;;;;1999.90;999.90;;;10.90;99.90;;;;;;5093059;28;20199;-69
2023/10/27 06:54:41;;;;;;;1999.90;999.90;;;10.80;99.90;;;;;;5093274;28;20205;-69
2023/10/27 06:57:07;;;;;;;1999.90;999.90;;;10.90;99.90;;;;;;5093349;28;20170;-69
2023/10/27 06:59:33;;;;;;;1999.90;999.90;;;10.90;99.90;;;;;;5093224;28;20548;-69
2023/10/27 07:01:59;;;;;;;1999.90;999.90;;;10.90;99.90;;;;;;5092950;28;20495;-69
2023/10/27 07:04:24;;;;;;;1999.90;999.90;;;10.90;99.90;;;;;;5093057;28;20174;-69
2023/10/27 07:06:50;;;;;;;1999.90;999.90;;;11.00;99.90;;;;;;5093066;28;20625;-69
2023/10/27 07:09:15;;;;;;;1999.90;999.90;;;11.00;99.90;;;;;;5092931;28;20671;-69
2023/10/27 07:11:41;;;;;;;1999.90;999.90;;;11.00;99.90;;;;;;5092628;28;20567;-69
2023/10/27 07:14:07;;;;;;;1999.90;999.90;;;11.00;99.90;;;;;;5079447;28;20195;-69
2023/10/27 07:16:32;;;;;;;1999.90;999.90;;;11.10;99.90;;;;;;5079866;28;20183;-69
2023/10/27 07:18:58;;;;;;;1999.90;999.90;;;11.10;99.90;;;;;;5085308;28;20173;-69
2023/10/27 07:21:23;;;;;;;1999.90;999.90;;;11.20;99.90;;;;;;5085181;28;20204;-69
2023/10/27 07:23:49;;;;;;;1999.90;999.90;;;11.20;99.90;;;;;;5093527;28;20544;-69
2023/10/27 07:26:15;;;;;;;1999.90;999.90;;;11.20;99.90;;;;;;5093479;28;20188;-69
2023/10/27 07:28:42;;;;;;;1999.90;999.90;;;11.20;99.90;;;;;;5093401;28;20259;-69
2023/10/27 07:31:10;;;;;;;1999.90;999.90;;;11.30;99.90;;;;;;5093783;28;20445;-69
2023/10/27 07:33:38;;;;;;;1999.90;999.90;;;11.30;99.90;;;;;;5082072;28;20456;-69
2023/10/27 07:36:05;;;;;;;1999.90;999.90;;;11.30;99.90;;;;;;5079972;28;20423;-69
2023/10/27 07:38:31;;;;;;;1999.90;999.90;;;11.30;99.90;;;;;;5093358;28;20403;-69
2023/10/27 07:40:58;;;;;;;1999.90;999.90;;;11.30;99.90;;;;;;5083236;28;20436;-69
2023/10/27 07:43:24;;;;;;;1999.90;999.90;;;11.30;99.90;;;;;;5093406;28;20191;-69
2023/10/27 07:45:49;;;;;;;1999.90;999.90;;;11.30;99.90;;;;;;5093620;28;20433;-69
2023/10/27 07:48:15;;;;;;;1999.90;999.90;;;11.40;99.90;;;;;;5089121;28;20458;-69
2023/10/27 07:50:42;;;;;;;1999.90;999.90;;;11.40;99.90;;;;;;5080705;28;20198;-69
2023/10/27 07:53:08;;;;;;;1999.90;999.90;;;11.40;99.90;;;;;;5090478;28;20166;-69
2023/10/27 07:55:33;;;;;;;1999.90;999.90;;;11.50;99.90;;;;;;5092540;28;20453;-69
2023/10/27 07:57:59;;;;;;;1999.90;999.90;;;11.50;99.90;;;;;;5092711;28;20409;-69
2023/10/27 08:00:24;;;;;;;1999.90;999.90;;;11.50;99.90;;;;;;5092365;28;20612;-69
2023/10/27 08:02:53;;;;;;;1999.90;999.90;;;11.50;99.90;;;;;;5092627;28;20209;-69
2023/10/27 08:05:19;;;;;;;1999.90;999.90;;;11.50;99.90;;;;;;5083118;28;20193;-69
2023/10/27 08:07:45;;;;;;;1999.90;999.90;;;11.50;99.90;;;;;;5086751;28;20541;-68
2023/10/27 08:10:11;;;;;;;1999.90;999.90;;;11.40;99.90;;;;;;5086153;28;20210;-69
2023/10/27 08:12:37;;;;;;;1999.90;999.90;;;11.50;99.90;;;;;;5085475;28;20797;-68
2023/10/27 08:15:07;;;;;;;1999.90;999.90;;;11.50;99.90;;;;;;5092338;28;20208;-69
2023/10/27 08:17:33;;;;;;;1999.90;999.90;;;11.60;99.90;;;;;;5092161;28;20782;-68
2023/10/27 08:19:59;;;;;;;1999.90;999.90;;;11.60;99.90;;;;;;5091869;28;20538;-68
2023/10/27 08:22:25;;;;;;;1999.90;999.90;;;11.60;99.90;;;;;;5092162;28;20782;-69
2023/10/27 08:24:51;;;;;;;1999.90;999.90;;;11.70;99.90;;;;;;5084736;28;20430;-68
2023/10/27 08:27:16;;;;;;;1999.90;999.90;;;11.70;99.90;;;;;;5059592;28;20217;-68
2023/10/27 08:29:42;;;;;;;1999.90;999.90;;;11.70;99.90;;;;;;5071026;28;20292;-69
2023/10/27 08:32:07;;;;;;;1999.90;999.90;;;11.80;99.90;;;;;;5059997;28;20662;-69
2023/10/27 08:34:35;;;;;;;1999.90;999.90;;;11.80;99.90;;;;;;5082391;28;20291;-69
2023/10/27 08:37:00;;;;;;;1999.90;999.90;;;11.80;99.90;;;;;;5080428;28;20186;-68
2023/10/27 08:39:26;;;;;;;1999.90;999.90;;;11.80;99.90;;;;;;5081369;28;20477;-69
2023/10/27 08:41:52;;;;;;;1999.90;999.90;;;11.80;99.90;;;;;;5083882;28;20178;-68
2023/10/27 08:44:19;;;;;;;1999.90;999.90;;;11.80;99.90;;;;;;5090828;28;20188;-69
2023/10/27 08:46:45;;;;;;;1999.90;999.90;;;11.80;99.90;;;;;;5090783;28;20940;-68
2023/10/27 08:49:11;;;;;;;1999.90;999.90;;;11.80;99.90;;;;;;5083106;28;20434;-69
2023/10/27 08:51:39;;;;;;;1999.90;999.90;;;11.70;99.90;;;;;;5091620;28;20443;-69
2023/10/27 08:54:05;;;;;;;1999.90;999.90;;;11.70;99.90;;;;;;5094291;28;20265;-68
2023/10/27 08:56:31;;;;;;;1999.90;999.90;;;11.80;99.90;;;;;;5095509;28;20427;-69
2023/10/27 08:58:58;;;;;;;1999.90;999.90;;;11.80;99.90;;;;;;5093744;28;20914;-69
2023/10/27 09:01:26;;;;;;;1999.90;999.90;;;11.70;99.90;;;;;;5086440;28;20178;-69
2023/10/27 09:04:10;;;;;;;1999.90;999.90;;;11.70;99.90;;;;;;5095291;28;20456;-69
2023/10/27 09:06:37;;;;;;;1999.90;999.90;;;11.80;99.90;;;;;;5095419;28;20428;-69
2023/10/27 09:09:09;;;;;;;1999.90;999.90;;;11.70;99.90;;;;;;5095271;28;20964;-69
2023/10/27 09:11:45;;;;;;;1999.90;999.90;;;11.70;99.90;;;;;;5094887;28;20456;-69
2023/10/27 09:14:30;;;;;;;1999.90;999.90;;;11.70;99.90;;;;;;5094199;28;20818;-69
2023/10/27 09:17:08;;;;;;;1999.90;999.90;;;11.70;99.90;;;;;;5083156;28;20895;-69
2023/10/27 09:19:35;;;;;;;1999.90;999.90;;;11.70;99.90;;;;;;5054964;28;20508;-69
2023/10/27 09:22:01;;;;;;;1999.90;999.90;;;11.70;99.90;;;;;;5054659;28;20408;-68
2023/10/27 09:24:30;;;;;;;1999.90;999.90;;;11.80;99.90;;;;;;5067614;28;20419;-69
2023/10/27 09:26:57;;;;;;;1999.90;999.90;;;11.80;99.90;;;;;;5079364;28;20414;-69
2023/10/27 09:29:23;;;;;;;1999.90;999.90;;;11.80;99.90;;;;;;5086092;28;20417;-68
2023/10/27 09:31:50;;;;;;;1999.90;999.90;;;11.90;99.90;;;;;;5080815;28;21961;-68
2023/10/27 09:34:17;;;;;;;1999.90;999.90;;;12.00;99.90;;;;;;5065213;28;20422;-68
2023/10/27 09:36:48;;;;;;;1999.90;999.90;;;12.10;99.90;;;;;;5081647;28;20412;-69
2023/10/27 09:39:20;;;;;;;1999.90;999.90;;;12.10;99.90;;;;;;5080434;28;20432;-68
2023/10/27 09:41:47;;;;;;;1999.90;999.90;;;12.10;99.90;;;;;;5078014;28;20427;-68
2023/10/27 09:44:19;;;;;;;1999.90;999.90;;;12.20;99.90;;;;;;5082734;28;20490;-68
2023/10/27 09:46:54;;;;;;;1999.90;999.90;;;12.30;99.90;;;;;;5074421;28;20405;-67
2023/10/27 09:49:27;;;;;;;1999.90;999.90;;;12.40;99.90;;;;;;5059049;28;20468;-68
2023/10/27 09:51:59;;;;;;;1999.90;999.90;;;12.40;99.90;;;;;;5053868;28;20450;-68
2023/10/27 09:54:31;;;;;;;1999.90;999.90;;;12.50;99.90;;;;;;5059770;28;20409;-67
2023/10/27 09:56:59;;;;;;;1999.90;999.90;;;12.50;99.90;;;;;;5065167;28;20424;-68
2023/10/27 09:59:25;;;;;;;1999.90;999.90;;;12.60;99.90;;;;;;5074919;28;20954;-68
2023/10/27 10:01:51;;;;;;;1999.90;999.90;;;12.60;99.90;;;;;;5085571;28;20494;-68
2023/10/27 10:04:51;;;;;;;1999.90;999.90;;;12.70;99.90;;;;;;5079670;28;20505;-67
2023/10/27 10:07:37;;;;;;;1999.90;999.90;;;12.70;99.90;;;;;;5079812;28;20190;-67
2023/10/27 10:10:34;;;;;;;1999.90;999.90;;;12.80;99.90;;;;;;5076186;28;20447;-69
2023/10/27 10:13:12;;;;;;;1999.90;999.90;;;12.90;99.90;;;;;;5075556;28;20430;-68
2023/10/27 10:15:44;;;;;;;1999.90;999.90;;;13.00;99.90;;;;;;5067905;28;20422;-68
2023/10/27 10:18:25;;;;;;;1999.90;999.90;;;13.10;99.90;;;;;;5076493;28;20431;-69
2023/10/27 10:20:56;;;;;;;1999.90;999.90;;;13.10;99.90;;;;;;5074172;28;20425;-68
2023/10/27 10:23:24;;;;;;;1999.90;999.90;;;13.10;99.90;;;;;;5086726;28;20514;-68
2023/10/27 10:25:54;;;;;;;1999.90;999.90;;;13.20;99.90;;;;;;5076851;28;20413;-72
2023/10/27 10:28:20;;;;;;;1999.90;999.90;;;13.10;99.90;;;;;;5078411;28;20425;-68
2023/10/27 10:31:17;;;;;;;1999.90;999.90;;;13.10;99.90;;;;;;5068606;28;20513;-68
2023/10/27 10:33:48;;;;;;;1999.90;999.90;;;13.20;99.90;;;;;;5091938;28;20645;-68
2023/10/27 10:36:22;;;;;;;1999.90;999.90;;;13.20;99.90;;;;;;5093488;28;20412;-68
2023/10/27 10:38:55;;;;;;;1999.90;999.90;;;13.60;99.90;;;;;;5082831;28;20419;-67
2023/10/27 10:41:21;;;;;;;1999.90;999.90;;;13.50;99.90;;;;;;5084604;28;20415;-67
2023/10/27 10:44:11;;;;;;;1999.90;999.90;;;13.70;99.90;;;;;;5092604;28;20406;-68
2023/10/27 10:46:37;;;;;;;1999.90;999.90;;;13.80;99.90;;;;;;5093277;28;20408;-67
2023/10/27 10:49:02;;;;;;;1999.90;999.90;;;13.80;99.90;;;;;;5092876;28;20400;-67
2023/10/27 10:51:36;;;;;;;1999.90;999.90;;;13.70;99.90;;;;;;5092643;28;20204;-68
2023/10/27 10:54:03;;;;;;;1999.90;999.90;;;13.70;99.90;;;;;;5076015;28;20176;-69
2023/10/27 10:56:29;;;;;;;1999.90;999.90;;;13.70;99.90;;;;;;5058191;28;20409;-68
2023/10/27 10:58:55;;;;;;;1999.90;999.90;;;13.50;99.90;;;;;;5092950;28;20427;-67
2023/10/27 11:01:22;;;;;;;1999.90;999.90;;;13.70;99.90;;;;;;5092729;28;20405;-67
2023/10/27 11:03:53;;;;;;;1999.90;999.90;;;13.70;99.90;;;;;;5092607;28;20170;-67
2023/10/27 11:06:20;;;;;;;1999.90;999.90;;;13.70;99.90;;;;;;5092875;28;20412;-67
2023/10/27 11:08:46;;;;;;;1999.90;999.90;;;13.50;99.90;;;;;;5092486;28;20407;-68
2023/10/27 11:11:16;;;;;;;1999.90;999.90;;;13.70;99.90;;;;;;5092097;28;20810;-69
2023/10/27 11:14:00;;;;;;;1999.90;999.90;;;13.80;99.90;;;;;;5092569;28;20257;-67
2023/10/27 11:16:26;;;;;;;1999.90;999.90;;;13.70;99.90;;;;;;5091886;28;20399;-70
2023/10/27 11:19:02;;;;;;;1999.90;999.90;;;13.70;99.90;;;;;;5092169;28;21002;-68
2023/10/27 11:21:30;;;;;;;1999.90;999.90;;;13.70;99.90;;;;;;5092532;28;20391;-69
2023/10/27 11:23:56;;;;;;;1999.90;999.90;;;13.70;99.90;;;;;;5092369;28;20749;-67
2023/10/27 11:26:24;;;;;;;1999.90;999.90;;;13.70;99.90;;;;;;5092283;28;20417;-67
2023/10/27 11:28:53;;;;;;;1999.90;999.90;;;13.60;99.90;;;;;;5092278;28;20935;-67
2023/10/27 11:31:22;;;;;;;1999.90;999.90;;;13.60;99.90;;;;;;5092172;28;20528;-68
2023/10/27 11:34:07;;;;;;;1999.90;999.90;;;13.50;99.90;;;;;;5092080;28;20394;-67
2023/10/27 11:36:40;;;;;;;1999.90;999.90;;;13.40;99.90;;;;;;5092261;28;20421;-67
2023/10/27 11:39:19;;;;;;;1999.90;999.90;;;13.40;99.90;;;;;;5092052;28;20507;-66
2023/10/27 11:41:50;;;;;;;1999.90;999.90;;;13.40;99.90;;;;;;5091922;28;20407;-67
2023/10/27 11:44:17;;;;;;;1999.90;999.90;;;13.30;99.90;;;;;;5092047;28;20482;-67
2023/10/27 11:46:46;;;;;;;1999.90;999.90;;;13.10;99.90;;;;;;5092028;28;20411;-68
2023/10/27 11:49:13;;;;;;;1999.90;999.90;;;13.00;99.90;;;;;;5091996;28;20927;-67
2023/10/27 11:51:38;;;;;;;1999.90;999.90;;;13.00;99.90;;;;;;5091843;28;20809;-68
2023/10/27 11:54:04;;;;;;;1999.90;999.90;;;13.00;99.90;;;;;;5091783;28;20428;-66
2023/10/27 11:56:29;;;;;;;1999.90;999.90;;;13.00;99.90;;;;;;5091879;28;20656;-66
2023/10/27 11:58:55;;;;;;;1999.90;999.90;;;12.80;99.90;;;;;;5091845;28;20171;-67